createdAt,value
2023-05-13T00:01:21.340Z,101745.60
2023-05-13T00:03:49.276Z,101755.20
2023-05-13T00:06:17.295Z,101750.40
2023-05-13T00:08:45.381Z,101741.20
2023-05-13T00:11:13.219Z,101741.00
2023-05-13T00:13:40.945Z,101747.00
2023-05-13T00:16:08.789Z,101750.60
2023-05-13T00:18:36.703Z,101746.00
2023-05-13T00:21:04.728Z,101745.40
2023-05-13T00:23:33.256Z,101744.80
2023-05-13T00:26:01.417Z,101753.80
2023-05-13T00:28:29.336Z,101746.20
2023-05-13T00:30:57.278Z,101740.20
2023-05-13T00:33:25.503Z,101730.40
2023-05-13T00:35:53.292Z,101731.60
2023-05-13T00:38:21.036Z,101734.60
2023-05-13T00:40:49.915Z,101727.00
2023-05-13T00:43:18.258Z,101723.60
2023-05-13T00:45:46.146Z,101722.60
2023-05-13T00:48:13.963Z,101723.80
2023-05-13T00:50:44.553Z,101720.20
2023-05-13T00:53:13.493Z,101722.80
2023-05-13T00:55:43.642Z,101732.40
2023-05-13T00:58:11.774Z,101738.60
2023-05-13T01:01:02.983Z,101743.60
2023-05-13T01:03:50.607Z,101743.60
2023-05-13T01:06:29.699Z,101744.20
2023-05-13T01:09:31.018Z,101745.40
2023-05-13T01:12:08.654Z,101753.40
2023-05-13T01:14:52.136Z,101754.40
2023-05-13T01:17:31.993Z,101751.20
2023-05-13T01:20:03.844Z,101747.00
2023-05-13T01:22:32.273Z,101746.80
2023-05-13T01:25:00.554Z,101741.40
2023-05-13T01:27:28.809Z,101737.20
2023-05-13T01:29:57.393Z,101737.80
2023-05-13T01:32:29.474Z,101739.00
2023-05-13T01:34:58.645Z,101738.80
2023-05-13T01:37:27.812Z,101739.80
2023-05-13T01:39:55.976Z,101745.00
2023-05-13T01:42:25.528Z,101744.40
2023-05-13T01:44:54.490Z,101740.20
2023-05-13T01:47:22.395Z,101742.20
2023-05-13T01:49:50.884Z,101742.20
2023-05-13T01:52:18.850Z,101745.20
2023-05-13T01:54:46.897Z,101743.80
2023-05-13T01:57:15.233Z,101745.00
2023-05-13T01:59:43.021Z,101748.60
2023-05-13T02:02:10.821Z,101749.80
2023-05-13T02:04:38.668Z,101747.00
2023-05-13T02:07:06.723Z,101741.40
2023-05-13T02:09:35.784Z,101742.60
2023-05-13T02:12:07.232Z,101742.40
2023-05-13T02:14:35.113Z,101743.60
2023-05-13T02:17:03.464Z,101741.60
2023-05-13T02:19:31.342Z,101745.40
2023-05-13T02:21:59.150Z,101745.20
2023-05-13T02:24:26.865Z,101735.20
2023-05-13T02:26:55.791Z,101735.80
2023-05-13T02:29:23.886Z,101740.20
2023-05-13T02:31:51.647Z,101738.00
2023-05-13T02:34:19.686Z,101731.00
2023-05-13T02:36:48.763Z,101733.60
2023-05-13T02:39:16.653Z,101727.00
2023-05-13T02:41:44.610Z,101732.00
2023-05-13T02:44:12.723Z,101726.60
2023-05-13T02:46:40.461Z,101731.40
2023-05-13T02:49:08.280Z,101731.80
2023-05-13T02:51:35.978Z,101735.80
2023-05-13T02:54:06.717Z,101739.20
2023-05-13T02:56:34.545Z,101745.20
2023-05-13T02:59:02.398Z,101741.60
2023-05-13T03:01:30.384Z,101739.60
2023-05-13T03:03:58.188Z,101737.20
2023-05-13T03:06:25.925Z,101735.20
2023-05-13T03:08:53.689Z,101733.80
2023-05-13T03:11:21.819Z,101736.20
2023-05-13T03:13:49.563Z,101740.00
2023-05-13T03:16:17.347Z,101739.20
2023-05-13T03:18:45.314Z,101732.20
2023-05-13T03:21:13.395Z,101732.60
2023-05-13T03:23:41.210Z,101733.00
2023-05-13T03:26:09.173Z,101733.40
2023-05-13T03:28:36.965Z,101728.60
2023-05-13T03:31:05.641Z,101737.00
2023-05-13T03:33:35.577Z,101732.60
2023-05-13T03:36:04.533Z,101734.60
2023-05-13T03:38:32.962Z,101733.00
2023-05-13T03:41:00.850Z,101738.40
2023-05-13T03:43:29.278Z,101731.80
2023-05-13T03:46:00.625Z,101735.80
2023-05-13T03:48:29.130Z,101735.60
2023-05-13T03:50:57.804Z,101741.00
2023-05-13T03:53:26.002Z,101745.40
2023-05-13T03:55:57.584Z,101743.20
2023-05-13T03:58:25.372Z,101741.80
2023-05-13T04:00:53.240Z,101743.20
2023-05-13T04:03:21.184Z,101744.80
2023-05-13T04:05:51.668Z,101744.80
2023-05-13T04:08:19.491Z,101747.20
2023-05-13T04:10:47.451Z,101748.80
2023-05-13T04:13:15.373Z,101746.80
2023-05-13T04:15:44.584Z,101749.60
2023-05-13T04:18:12.355Z,101747.60
2023-05-13T04:20:41.017Z,101751.40
2023-05-13T04:23:08.811Z,101757.20
2023-05-13T04:25:39.851Z,101752.00
2023-05-13T04:28:07.703Z,101744.20
2023-05-13T04:30:44.722Z,101744.40
2023-05-13T04:33:13.042Z,101744.60
2023-05-13T04:35:43.832Z,101751.40
2023-05-13T04:38:12.581Z,101751.80
2023-05-13T04:40:40.555Z,101746.00
2023-05-13T04:43:12.441Z,101750.00
2023-05-13T04:45:47.816Z,101761.00
2023-05-13T04:48:16.674Z,101760.80
2023-05-13T04:50:48.418Z,101764.20
2023-05-13T04:53:17.427Z,101759.00
2023-05-13T04:55:49.892Z,101762.40
2023-05-13T04:58:17.708Z,101764.60
2023-05-13T05:00:45.850Z,101761.80
2023-05-13T05:03:14.557Z,101767.40
2023-05-13T05:05:42.517Z,101765.00
2023-05-13T05:08:11.276Z,101771.60
2023-05-13T05:10:39.045Z,101775.00
2023-05-13T05:13:10.269Z,101775.40
2023-05-13T05:15:38.343Z,101776.00
2023-05-13T05:18:08.097Z,101779.20
2023-05-13T05:20:38.452Z,101784.20
2023-05-13T05:23:10.499Z,101782.40
2023-05-13T05:25:39.130Z,101780.40
2023-05-13T05:28:09.401Z,101782.00
2023-05-13T05:30:40.093Z,101783.80
2023-05-13T05:33:13.229Z,101774.20
2023-05-13T05:35:41.705Z,101776.60
2023-05-13T05:38:12.589Z,101783.60
2023-05-13T05:40:46.217Z,101784.60
2023-05-13T05:43:14.994Z,101783.80
2023-05-13T05:45:43.820Z,101782.80
2023-05-13T05:48:14.521Z,101785.60
2023-05-13T05:50:43.517Z,101790.00
2023-05-13T05:53:13.840Z,101787.40
2023-05-13T05:55:42.456Z,101788.80
2023-05-13T05:58:16.394Z,101786.40
2023-05-13T06:00:44.648Z,101784.80
2023-05-13T06:03:12.802Z,101787.40
2023-05-13T06:05:40.828Z,101789.80
2023-05-13T06:08:08.568Z,101787.20
2023-05-13T06:10:36.448Z,101789.20
2023-05-13T06:13:04.818Z,101791.40
2023-05-13T06:15:32.712Z,101795.80
2023-05-13T06:18:01.748Z,101801.80
2023-05-13T06:20:29.671Z,101805.20
2023-05-13T06:22:57.894Z,101801.40
2023-05-13T06:25:26.743Z,101801.20
2023-05-13T06:27:55.061Z,101809.00
2023-05-13T06:30:23.634Z,101808.80
2023-05-13T06:33:00.997Z,101807.00
2023-05-13T06:35:31.525Z,101809.40
2023-05-13T06:38:00.190Z,101804.40
2023-05-13T06:40:28.478Z,101810.40
2023-05-13T06:42:56.686Z,101811.20
2023-05-13T06:45:30.229Z,101815.60
2023-05-13T06:47:58.208Z,101815.80
2023-05-13T06:50:26.092Z,101816.00
2023-05-13T06:52:55.094Z,101821.60
2023-05-13T06:55:22.909Z,101816.40
2023-05-13T06:57:51.269Z,101814.40
2023-05-13T07:00:19.400Z,101812.20
2023-05-13T07:02:47.387Z,101815.40
2023-05-13T07:05:15.405Z,101812.80
2023-05-13T07:07:43.458Z,101810.60
2023-05-13T07:10:11.372Z,101815.60
2023-05-13T07:12:39.419Z,101818.40
2023-05-13T07:15:08.490Z,101824.00
2023-05-13T07:17:36.444Z,101828.20
2023-05-13T07:20:04.602Z,101824.20
2023-05-13T07:22:32.959Z,101822.60
2023-05-13T07:25:01.257Z,101827.80
2023-05-13T07:27:29.023Z,101825.60
2023-05-13T07:29:56.748Z,101835.00
2023-05-13T07:32:24.525Z,101836.20
2023-05-13T07:34:52.340Z,101835.20
2023-05-13T07:37:20.263Z,101841.80
2023-05-13T07:39:47.968Z,101841.00
2023-05-13T07:42:15.809Z,101834.00
2023-05-13T07:44:44.048Z,101844.00
2023-05-13T07:47:13.623Z,101839.20
2023-05-13T07:49:41.707Z,101840.80
2023-05-13T07:52:09.546Z,101834.20
2023-05-13T07:54:37.312Z,101836.40
2023-05-13T07:57:05.304Z,101838.20
2023-05-13T07:59:33.148Z,101846.80
2023-05-13T08:02:00.937Z,101842.80
2023-05-13T08:04:28.731Z,101847.80
2023-05-13T08:06:56.589Z,101845.60
2023-05-13T08:09:24.554Z,101838.20
2023-05-13T08:11:52.336Z,101838.60
2023-05-13T08:14:20.964Z,101835.80
2023-05-13T08:16:49.021Z,101846.60
2023-05-13T08:19:17.521Z,101840.40
2023-05-13T08:21:45.493Z,101845.20
2023-05-13T08:24:13.287Z,101840.80
2023-05-13T08:26:41.030Z,101840.00
2023-05-13T08:29:12.950Z,101843.80
2023-05-13T08:31:42.167Z,101842.60
2023-05-13T08:34:10.100Z,101846.00
2023-05-13T08:36:37.866Z,101843.40
2023-05-13T08:39:05.760Z,101846.20
2023-05-13T08:41:34.715Z,101848.80
2023-05-13T08:44:06.901Z,101855.40
2023-05-13T08:46:39.018Z,101847.20
2023-05-13T08:49:08.063Z,101851.60
2023-05-13T08:51:35.898Z,101854.40
2023-05-13T08:54:03.856Z,101843.60
2023-05-13T08:56:31.711Z,101848.20
2023-05-13T08:58:59.544Z,101850.00
2023-05-13T09:01:28.892Z,101850.60
2023-05-13T09:04:06.306Z,101849.40
2023-05-13T09:06:34.637Z,101848.00
2023-05-13T09:09:03.067Z,101841.40
2023-05-13T09:11:31.019Z,101835.60
2023-05-13T09:14:01.434Z,101831.20
2023-05-13T09:16:30.396Z,101834.40
2023-05-13T09:19:05.794Z,101835.80
2023-05-13T09:21:36.524Z,101834.40
2023-05-13T09:24:11.770Z,101831.60
2023-05-13T09:26:42.276Z,101836.00
2023-05-13T09:29:30.386Z,101835.40
2023-05-13T09:32:01.519Z,101834.20
2023-05-13T09:34:34.744Z,101836.00
2023-05-13T09:37:06.464Z,101834.00
2023-05-13T09:39:41.168Z,101840.20
2023-05-13T09:42:17.227Z,101843.40
2023-05-13T09:44:46.818Z,101839.60
2023-05-13T09:47:16.050Z,101838.80
2023-05-13T09:49:53.081Z,101849.40
2023-05-13T09:52:22.339Z,101845.60
2023-05-13T09:54:50.139Z,101837.80
2023-05-13T09:57:17.920Z,101843.00
2023-05-13T09:59:45.692Z,101841.00
2023-05-13T10:02:17.928Z,101843.60
2023-05-13T10:04:46.116Z,101842.20
2023-05-13T10:07:14.752Z,101847.40
2023-05-13T10:09:46.242Z,101848.00
2023-05-13T10:12:15.349Z,101845.40
2023-05-13T10:14:44.158Z,101843.00
2023-05-13T10:17:13.548Z,101836.60
2023-05-13T10:19:42.369Z,101833.20
2023-05-13T10:22:11.890Z,101834.60
2023-05-13T10:24:41.669Z,101828.00
2023-05-13T10:27:12.035Z,101837.20
2023-05-13T10:29:40.728Z,101835.60
2023-05-13T10:32:09.818Z,101832.40
2023-05-13T10:34:39.935Z,101830.80
2023-05-13T10:37:42.528Z,101831.80
2023-05-13T10:40:38.361Z,101831.80
2023-05-13T10:43:18.708Z,101829.80
2023-05-13T10:46:07.857Z,101835.00
2023-05-13T10:48:51.586Z,101830.20
2023-05-13T10:51:24.567Z,101836.80
2023-05-13T10:53:57.914Z,101834.40
2023-05-13T10:56:28.614Z,101827.20
2023-05-13T10:59:06.360Z,101830.80
2023-05-13T11:01:43.887Z,101824.60
2023-05-13T11:04:15.701Z,101824.20
2023-05-13T11:06:46.493Z,101826.80
2023-05-13T11:09:20.425Z,101825.00
2023-05-13T11:11:53.324Z,101820.80
2023-05-13T11:14:26.896Z,101821.00
2023-05-13T11:17:20.075Z,101819.40
2023-05-13T11:19:51.548Z,101819.40
2023-05-13T11:22:24.317Z,101815.00
2023-05-13T11:25:10.510Z,101816.40
2023-05-13T11:27:42.926Z,101815.60
2023-05-13T11:30:23.816Z,101815.00
2023-05-13T11:32:58.309Z,101813.40
2023-05-13T11:35:32.603Z,101809.20
2023-05-13T11:38:03.560Z,101808.00
2023-05-13T11:40:34.825Z,101803.40
2023-05-13T11:43:05.131Z,101801.20
2023-05-13T11:45:33.982Z,101807.80
2023-05-13T11:48:22.557Z,101804.20
2023-05-13T11:50:52.816Z,101805.20
2023-05-13T11:53:22.684Z,101803.00
2023-05-13T11:55:51.517Z,101801.40
2023-05-13T11:58:21.548Z,101800.40
2023-05-13T12:00:49.302Z,101796.60
2023-05-13T12:03:17.109Z,101803.20
2023-05-13T12:05:45.017Z,101800.40
2023-05-13T12:08:13.396Z,101800.80
2023-05-13T12:10:45.605Z,101801.00
2023-05-13T12:13:13.879Z,101797.00
2023-05-13T12:15:42.743Z,101794.60
2023-05-13T12:18:10.918Z,101794.20
2023-05-13T12:20:38.740Z,101791.40
2023-05-13T12:23:06.643Z,101796.00
2023-05-13T12:25:46.989Z,101796.40
2023-05-13T12:28:26.026Z,101795.20
2023-05-13T12:30:58.673Z,101798.20
2023-05-13T12:33:30.020Z,101799.40
2023-05-13T12:36:36.307Z,101798.60
2023-05-13T12:39:09.106Z,101799.20
2023-05-13T12:41:42.470Z,101801.40
2023-05-13T12:44:14.877Z,101795.20
2023-05-13T12:46:54.907Z,101792.80
2023-05-13T12:49:23.218Z,101795.80
2023-05-13T12:51:55.710Z,101795.00
2023-05-13T12:54:23.570Z,101794.40
2023-05-13T12:56:52.586Z,101793.00
2023-05-13T12:59:20.390Z,101787.80
2023-05-13T13:01:49.963Z,101789.40
2023-05-13T13:04:19.148Z,101785.80
2023-05-13T13:06:47.179Z,101785.40
2023-05-13T13:09:14.931Z,101787.60
2023-05-13T13:11:42.699Z,101788.40
2023-05-13T13:14:10.476Z,101792.80
2023-05-13T13:16:38.442Z,101778.60
2023-05-13T13:19:06.503Z,101783.00
2023-05-13T13:21:34.315Z,101783.40
2023-05-13T13:24:02.058Z,101785.40
2023-05-13T13:26:29.846Z,101783.60
2023-05-13T13:28:57.575Z,101782.80
2023-05-13T13:31:25.396Z,101778.20
2023-05-13T13:33:54.001Z,101771.60
2023-05-13T13:36:21.856Z,101776.60
2023-05-13T13:38:49.585Z,101774.00
2023-05-13T13:41:17.304Z,101773.00
2023-05-13T13:43:45.060Z,101771.20
2023-05-13T13:46:12.890Z,101768.80
2023-05-13T13:48:40.990Z,101770.20
2023-05-13T13:51:08.874Z,101763.80
2023-05-13T13:53:36.604Z,101765.80
2023-05-13T13:56:04.572Z,101759.60
2023-05-13T13:58:32.367Z,101760.60
2023-05-13T14:01:00.142Z,101757.40
2023-05-13T14:03:28.269Z,101758.60
2023-05-13T14:05:56.602Z,101753.60
2023-05-13T14:08:24.614Z,101751.40
2023-05-13T14:10:52.556Z,101750.20
2023-05-13T14:13:20.598Z,101745.40
2023-05-13T14:15:48.401Z,101741.80
2023-05-13T14:18:16.190Z,101738.40
2023-05-13T14:20:44.243Z,101737.00
2023-05-13T14:23:12.203Z,101732.00
2023-05-13T14:25:40.022Z,101726.20
2023-05-13T14:28:07.853Z,101726.80
2023-05-13T14:30:35.617Z,101723.40
2023-05-13T14:33:03.687Z,101718.80
2023-05-13T14:35:31.538Z,101723.80
2023-05-13T14:37:59.249Z,101726.20
2023-05-13T14:40:26.978Z,101716.80
2023-05-13T14:42:54.880Z,101716.60
2023-05-13T14:45:22.797Z,101717.40
2023-05-13T14:47:53.698Z,101717.40
2023-05-13T14:50:22.127Z,101718.40
2023-05-13T14:52:50.364Z,101718.00
2023-05-13T14:55:18.194Z,101716.20
2023-05-13T14:57:46.032Z,101721.00
2023-05-13T15:00:14.714Z,101720.20
2023-05-13T15:02:42.573Z,101718.60
2023-05-13T15:05:11.292Z,101714.80
2023-05-13T15:07:39.270Z,101715.40
2023-05-13T15:10:08.271Z,101721.00
2023-05-13T15:12:36.035Z,101726.60
2023-05-13T15:15:04.707Z,101724.00
2023-05-13T15:17:32.678Z,101719.40
2023-05-13T15:20:00.469Z,101717.40
2023-05-13T15:22:28.237Z,101710.40
2023-05-13T15:24:55.960Z,101713.40
2023-05-13T15:27:23.803Z,101712.20
2023-05-13T15:29:51.521Z,101714.60
2023-05-13T15:32:19.317Z,101706.60
2023-05-13T15:34:47.065Z,101704.60
2023-05-13T15:37:14.862Z,101706.40
2023-05-13T15:39:42.622Z,101697.80
2023-05-13T15:42:10.459Z,101694.80
2023-05-13T15:44:38.268Z,101688.00
2023-05-13T15:47:06.883Z,101688.80
2023-05-13T15:49:34.817Z,101692.20
2023-05-13T15:52:06.244Z,101687.20
2023-05-13T15:54:34.744Z,101686.80
2023-05-13T15:57:02.578Z,101684.80
2023-05-13T15:59:30.340Z,101683.00
2023-05-13T16:01:58.208Z,101685.40
2023-05-13T16:04:26.467Z,101679.80
2023-05-13T16:06:54.349Z,101682.60
2023-05-13T16:09:22.135Z,101678.00
2023-05-13T16:11:50.268Z,101681.20
2023-05-13T16:14:19.408Z,101674.60
2023-05-13T16:16:47.500Z,101671.80
2023-05-13T16:19:15.517Z,101671.80
2023-05-13T16:21:43.639Z,101665.80
2023-05-13T16:24:11.447Z,101665.80
2023-05-13T16:26:39.246Z,101664.80
2023-05-13T16:29:07.063Z,101659.20
2023-05-13T16:31:34.897Z,101655.60
2023-05-13T16:34:03.030Z,101656.80
2023-05-13T16:36:31.119Z,101654.20
2023-05-13T16:38:59.057Z,101654.40
2023-05-13T16:41:26.884Z,101656.40
2023-05-13T16:43:54.663Z,101654.80
2023-05-13T16:46:22.668Z,101655.20
2023-05-13T16:48:50.949Z,101655.80
2023-05-13T16:51:18.848Z,101659.80
2023-05-13T16:53:46.595Z,101657.40
2023-05-13T16:56:14.355Z,101659.60
2023-05-13T16:58:42.091Z,101662.60
2023-05-13T17:01:09.984Z,101664.60
2023-05-13T17:03:37.849Z,101653.80
2023-05-13T17:06:07.687Z,101650.00
2023-05-13T17:08:35.659Z,101649.40
2023-05-13T17:11:03.706Z,101647.40
2023-05-13T17:13:31.653Z,101646.80
2023-05-13T17:15:59.394Z,101650.20
2023-05-13T17:18:27.239Z,101652.00
2023-05-13T17:20:55.136Z,101651.80
2023-05-13T17:23:22.956Z,101656.20
2023-05-13T17:25:51.010Z,101653.80
2023-05-13T17:28:18.769Z,101653.00
2023-05-13T17:30:46.631Z,101650.20
2023-05-13T17:33:14.479Z,101643.20
2023-05-13T17:35:42.245Z,101646.20
2023-05-13T17:38:10.045Z,101641.40
2023-05-13T17:40:37.832Z,101640.20
2023-05-13T17:43:05.802Z,101639.80
2023-05-13T17:45:35.790Z,101634.40
2023-05-13T17:48:04.494Z,101633.60
2023-05-13T17:50:32.374Z,101633.60
2023-05-13T17:53:00.821Z,101632.00
2023-05-13T17:55:28.790Z,101631.20
2023-05-13T17:57:57.113Z,101629.60
2023-05-13T18:00:25.937Z,101630.00
2023-05-13T18:02:54.108Z,101630.80
2023-05-13T18:05:23.863Z,101631.00
2023-05-13T18:07:52.385Z,101627.80
2023-05-13T18:10:21.815Z,101624.60
2023-05-13T18:12:51.895Z,101623.60
2023-05-13T18:15:22.911Z,101621.40
2023-05-13T18:17:51.214Z,101626.40
2023-05-13T18:20:19.809Z,101632.40
2023-05-13T18:22:47.646Z,101633.60
2023-05-13T18:25:15.749Z,101632.60
2023-05-13T18:27:43.489Z,101631.20
2023-05-13T18:30:12.423Z,101632.60
2023-05-13T18:32:40.179Z,101628.60
2023-05-13T18:35:08.806Z,101630.80
2023-05-13T18:37:37.002Z,101629.40
2023-05-13T18:40:06.024Z,101625.80
2023-05-13T18:42:33.800Z,101627.20
2023-05-13T18:45:01.534Z,101627.40
2023-05-13T18:47:29.363Z,101630.80
2023-05-13T18:49:57.419Z,101630.80
2023-05-13T18:52:26.165Z,101632.80
2023-05-13T18:54:53.982Z,101627.00
2023-05-13T18:57:23.728Z,101632.40
2023-05-13T18:59:51.792Z,101636.00
2023-05-13T19:02:19.728Z,101628.60
2023-05-13T19:04:47.779Z,101625.40
2023-05-13T19:07:15.559Z,101621.80
2023-05-13T19:09:43.330Z,101623.20
2023-05-13T19:12:11.509Z,101620.20
2023-05-13T19:14:39.253Z,101627.80
2023-05-13T19:17:07.276Z,101628.00
2023-05-13T19:19:35.144Z,101627.40
2023-05-13T19:22:03.108Z,101630.40
2023-05-13T19:24:30.980Z,101631.20
2023-05-13T19:26:58.941Z,101629.80
2023-05-13T19:29:26.765Z,101628.00
2023-05-13T19:31:54.589Z,101622.20
2023-05-13T19:34:22.432Z,101626.60
2023-05-13T19:36:50.388Z,101626.80
2023-05-13T19:39:18.207Z,101629.80
2023-05-13T19:41:47.941Z,101637.20
2023-05-13T19:44:15.798Z,101636.80
2023-05-13T19:46:43.671Z,101646.40
2023-05-13T19:49:11.585Z,101645.80
2023-05-13T19:51:39.707Z,101650.40
2023-05-13T19:54:09.719Z,101653.00
2023-05-13T19:56:38.372Z,101654.20
2023-05-13T19:59:06.233Z,101655.20
2023-05-13T20:01:34.642Z,101657.80
2023-05-13T20:04:02.540Z,101659.80
2023-05-13T20:06:30.962Z,101657.00
2023-05-13T20:08:59.475Z,101661.60
2023-05-13T20:11:28.088Z,101657.00
2023-05-13T20:13:56.104Z,101655.00
2023-05-13T20:16:23.931Z,101657.00
2023-05-13T20:18:51.768Z,101652.20
2023-05-13T20:21:19.673Z,101655.00
2023-05-13T20:23:47.646Z,101655.60
2023-05-13T20:26:15.421Z,101657.60
2023-05-13T20:28:45.197Z,101649.20
2023-05-13T20:31:12.977Z,101652.60
2023-05-13T20:33:40.928Z,101648.40
2023-05-13T20:36:08.710Z,101646.80
2023-05-13T20:38:36.561Z,101650.00
2023-05-13T20:41:04.335Z,101649.40
2023-05-13T20:43:37.116Z,101645.80
2023-05-13T20:46:07.007Z,101653.40
2023-05-13T20:48:35.477Z,101657.40
2023-05-13T20:51:06.019Z,101660.40
2023-05-13T20:53:37.257Z,101663.20
2023-05-13T20:56:09.851Z,101664.60
2023-05-13T20:58:37.674Z,101664.80
2023-05-13T21:01:05.530Z,101663.60
2023-05-13T21:03:33.486Z,101659.60
2023-05-13T21:06:01.429Z,101655.00
2023-05-13T21:08:29.304Z,101655.00
2023-05-13T21:10:57.466Z,101653.40
2023-05-13T21:13:26.012Z,101648.80
2023-05-13T21:15:53.913Z,101650.20
2023-05-13T21:18:22.008Z,101641.20
2023-05-13T21:20:50.168Z,101640.20
2023-05-13T21:23:19.390Z,101633.20
2023-05-13T21:25:48.235Z,101628.60
2023-05-13T21:28:18.543Z,101627.00
2023-05-13T21:30:46.429Z,101629.80
2023-05-13T21:33:14.426Z,101626.20
2023-05-13T21:35:42.193Z,101626.40
2023-05-13T21:38:12.385Z,101625.20
2023-05-13T21:40:40.898Z,101627.40
2023-05-13T21:43:08.973Z,101631.60
2023-05-13T21:45:37.352Z,101634.20
2023-05-13T21:48:06.755Z,101638.60
2023-05-13T21:50:35.431Z,101633.40
2023-05-13T21:53:04.518Z,101623.40
2023-05-13T21:55:35.030Z,101624.20
2023-05-13T21:58:03.241Z,101617.60
2023-05-13T22:00:31.799Z,101614.80
2023-05-13T22:03:01.482Z,101618.20
2023-05-13T22:05:29.427Z,101618.20
2023-05-13T22:07:57.440Z,101612.00
2023-05-13T22:10:26.841Z,101613.80
2023-05-13T22:12:55.854Z,101612.60
2023-05-13T22:15:23.648Z,101615.80
2023-05-13T22:17:52.152Z,101612.60
2023-05-13T22:20:20.233Z,101614.20
2023-05-13T22:22:48.129Z,101612.00
2023-05-13T22:25:15.981Z,101613.40
2023-05-13T22:27:43.825Z,101614.80
2023-05-13T22:30:11.985Z,101617.20
2023-05-13T22:32:40.200Z,101616.40
2023-05-13T22:35:09.304Z,101609.80
2023-05-13T22:37:37.018Z,101604.80
2023-05-13T22:40:06.503Z,101602.00
2023-05-13T22:42:34.272Z,101600.60
2023-05-13T22:45:02.089Z,101599.00
2023-05-13T22:47:29.941Z,101595.20
2023-05-13T22:49:57.680Z,101594.80
2023-05-13T22:52:25.483Z,101590.40
2023-05-13T22:54:53.352Z,101585.40
2023-05-13T22:57:22.005Z,101580.00
2023-05-13T22:59:49.858Z,101581.60
2023-05-13T23:02:17.673Z,101585.80
2023-05-13T23:04:45.434Z,101592.60
2023-05-13T23:07:13.282Z,101581.00
2023-05-13T23:09:41.229Z,101575.80
2023-05-13T23:12:09.042Z,101576.00
2023-05-13T23:14:36.842Z,101570.60
2023-05-13T23:17:04.782Z,101564.00
2023-05-13T23:19:33.042Z,101560.00
2023-05-13T23:22:01.048Z,101565.40
2023-05-13T23:24:28.855Z,101568.40
2023-05-13T23:26:56.702Z,101573.20
2023-05-13T23:29:27.623Z,101580.60
2023-05-13T23:31:56.109Z,101582.80
2023-05-13T23:34:24.102Z,101580.40
2023-05-13T23:36:51.936Z,101579.20
2023-05-13T23:39:20.142Z,101576.60
2023-05-13T23:41:48.190Z,101574.80
2023-05-13T23:44:16.043Z,101570.00
2023-05-13T23:46:43.798Z,101566.80
2023-05-13T23:49:11.633Z,101565.00
2023-05-13T23:51:39.371Z,101560.20
2023-05-13T23:54:08.300Z,101559.60
2023-05-13T23:56:36.131Z,101558.00
2023-05-13T23:59:03.955Z,101547.00
